Kohju — H3XI — position and weather

sailwx.info

Track history (hours):
 
Tides and Currents Weather Stations Pressure Air Temp Water Temp Dewpoint Dewpoint Depression Visibility Wind Speed Wind Dir Waves Ship Positions

Kohju

Last reported at 2014-Jul-29 01:30 UTC. Time now 2014-Jul-29 06:51 UTC.
Position N 34°16' W 014°27'.

Length 289 m; draft 10.8 m.

Type: Cargo ship. MMSI: 357349000.

Date/timePositionNaut miles runAvg speedWind from/ knotsBaromVisibWave heightAir tempDewpointWater temp
2014-Jul-29 01:30N 34°16' W 014°27'10813.6
2014-Jul-28 17:32N 34°43' W 012°20'15712.9
2014-Jul-28 05:19N 35°22' W 009°14'1012.9
2014-Jul-28 04:32N 35°24' W 009°02'1312.9
2014-Jul-28 03:30N 35°27' W 008°46'5313.0
2014-Jul-27 23:24N 35°41' W 007°43'2513.2
2014-Jul-27 21:28N 35°47' W 007°13'1213.3
2014-Jul-27 20:33N 35°50' W 006°58'1313.4
2014-Jul-27 19:33N 35°53' W 006°42'1413.1
2014-Jul-27 18:29N 35°56' W 006°25'  
Track history (hours):
 
Tides and Currents Weather Stations Pressure Air Temp Water Temp Dewpoint Dewpoint Depression Visibility Wind Speed Wind Dir Waves Ship Positions

Kohju

Last reported at 2014-Jul-29 01:30 UTC. Time now 2014-Jul-29 06:51 UTC.
Position N 34°16' W 014°27'.

Length 289 m; draft 10.8 m.

Type: Cargo ship. MMSI: 357349000.

Date/timePositionNaut miles runAvg speedWind from/ knotsBaromVisibWave heightAir tempDewpointWater temp
2014-Jul-29 01:30N 34°16' W 014°27'10813.6
2014-Jul-28 17:32N 34°43' W 012°20'15712.9
2014-Jul-28 05:19N 35°22' W 009°14'1012.9
2014-Jul-28 04:32N 35°24' W 009°02'1312.9
2014-Jul-28 03:30N 35°27' W 008°46'5313.0
2014-Jul-27 23:24N 35°41' W 007°43'2513.2
2014-Jul-27 21:28N 35°47' W 007°13'1213.3
2014-Jul-27 20:33N 35°50' W 006°58'1313.4
2014-Jul-27 19:33N 35°53' W 006°42'1413.1
2014-Jul-27 18:29N 35°56' W 006°25'  

Dump ship's entire track history